Changzhou, China
Current Conditions -  °F | °C
As of 11:00 AM on Saturday 25 Oct 2014 (Local Time) from ZSNJ Reporting Station
Clear Clear  
Wind Chill: 77°   Ceiling: Unl
Heat Index: 79°   Visibility: 5mi
Dew Point: 59°   Wind: 2mph
Humidity: 54%   Direction: NA
Pressure: 30.06"   Gusts: NA
Location:  31.78°N, 119.97°E
Report Text: ZSNJ 250300Z VRB01MPS 8000 NSC 25/15 Q1018 NOSIG
Loading
Personal Weather Stations






























Interactive Weather Map
Tropical Storm Tracking
New forecast layout! Learn more

10-Day Weather Forecast

Advertisements
Track Severe Weather on mobile